• Join FlightAware (Why Join?)
  • Login
  • US Flag 
02:49PM EDT


 

Airport Tracker/Info


-or-


 

Live Flight TrackerFlight Track Log ✈ UPS1121 ✈ 25-Jun-2013 ✈ KALB - KBDL

Flight Track Log - Related Links

Times and Time Zones

All times are in EDT time to prevent confusion due to time zone crossing. See the UPS1121 flight status page for this flight to view local times or setup timezone preferences in your user account.

Time Position Orientation Groundspeed Altitude Reporting Facility
EDT Latitude Longitude Course Direction KTS MPH feet Rate Location/Type
08:37PM 42.7339 -73.8081 138° Southeast 154 177 1,800  Level Boston Center
08:39PM 42.6497 -73.7047 138° Southeast 256 295 6,300 2,760 Climbing Boston Center
08:40PM 42.5986 -73.6219 130° Southeast 306 352 9,400 2,040 Climbing Boston Center
08:41PM 42.5350 -73.5192 130° Southeast 321 369 10,400 1,020 Climbing Boston Center
08:41PM 42.4978 -73.4650 133° Southeast 341 392 11,000 360 Climbing Boston Center
08:42PM 42.4319 -73.3656 132° Southeast 382 440 11,000  Level Boston Center
08:43PM 42.3950 -73.3089 131° Southeast 378 435 11,000  Level Boston Center
08:44PM 42.3519 -73.1931 117° Southeast 378 435 11,000 -180 Level Boston Center
08:45PM 42.3050 -73.0606 116° Southeast 364 419 10,700 -900 Descending Boston Center
08:46PM 42.2700 -72.9647 116° Southeast 329 379 9,300 -1,680 Descending Boston Center
08:46PM 42.2411 -72.9000 121° Southeast 319 367 8,200 -2,100 Descending Boston Center
08:47PM 42.2247 -72.8467 113° Southeast 317 365 7,200 -1,980 Descending Boston Center
08:47PM 42.2019 -72.7933 120° Southeast 316 364 6,200 -1,620 Descending Boston Center
08:48PM 42.1647 -72.6922 116° Southeast 304 350 4,800 -1,200 Descending Boston Center
08:49PM 42.1314 -72.5997 116° Southeast 292 336 4,000 -540 Descending Boston Center
08:50PM 42.0981 -72.5269 122° Southeast 209 241 3,800 -480 Descending Boston Center
08:51PM 42.0544 -72.5350 188° South 166 191 3,100 -840 Descending Boston Center
08:52PM 42.0294 -72.5714 227° Southwest 158 182 2,300 -720 Descending Boston Center
08:53PM 42.0044 -72.6022 223° Southwest 136 157 1,800 -600 Descending Boston Center
08:54PM 41.9772 -72.6356 222° Southwest 119 137 1,100 -600 Descending Boston Center
08:55PM 41.9583 -72.6606 225° Southwest 113 130 600 -600 Descending Boston Center